Time;durP1;ratioP1;P1;durP2;ratioP2;P2;SDS_P1;SDS_P2;PMS_P1;PMS_P2;Temp;Humidity;BMP_temperature;BMP_pressure;BME280_temperature;BME280_humidity;BME280_pressure;Samples;Min_cycle;Max_cycle;Signal;HPM_P1;HPM_P2
2022/09/04 00:00:20;;;;;;;10.38;9.88;;;;;;;13.23;100.00;101360.50;5037919;28;20400;-62
2022/09/04 00:03:12;;;;;;;10.23;9.73;;;;;;;13.25;100.00;101350.50;5061082;28;20024;-62
2022/09/04 00:05:50;;;;;;;10.38;9.88;;;;;;;13.34;100.00;101351.28;5041990;28;20541;-62
2022/09/04 00:08:25;;;;;;;10.52;10.02;;;;;;;13.43;100.00;101363.56;5059831;28;20041;-62
2022/09/04 00:10:58;;;;;;;10.50;10.00;;;;;;;13.34;100.00;101360.13;5059539;28;20024;-62
2022/09/04 00:13:35;;;;;;;10.40;9.90;;;;;;;13.39;100.00;101365.78;5050469;28;20112;-62
2022/09/04 00:16:01;;;;;;;10.30;9.80;;;;;;;13.47;100.00;101363.06;5062880;28;20025;-63
2022/09/04 00:18:32;;;;;;;10.68;10.18;;;;;;;13.40;100.00;101362.09;5067481;28;20053;-63
2022/09/04 00:21:36;;;;;;;10.50;10.00;;;;;;;13.35;100.00;101372.44;5054761;28;20029;-63
2022/09/04 00:24:08;;;;;;;10.27;9.77;;;;;;;13.37;100.00;101367.78;5042400;28;20377;-63
2022/09/04 00:26:40;;;;;;;10.25;9.75;;;;;;;13.37;100.00;101366.97;5063441;28;20047;-63
2022/09/04 00:29:25;;;;;;;10.20;9.70;;;;;;;13.36;100.00;101366.09;5057365;28;20028;-62
2022/09/04 00:31:58;;;;;;;;;;;;;;;13.39;100.00;101372.94;5068953;28;20035;-62
2022/09/04 00:34:49;;;;;;;10.10;9.60;;;;;;;13.36;100.00;101368.75;5063368;28;19912;-62
2022/09/04 00:37:21;;;;;;;10.20;9.70;;;;;;;13.27;100.00;101369.81;5071607;28;20021;-63
2022/09/04 00:39:49;;;;;;;10.40;9.90;;;;;;;13.25;100.00;101375.31;5067210;28;20452;-63
2022/09/04 00:42:35;;;;;;;10.20;9.70;;;;;;;13.27;100.00;101372.47;5068002;28;20036;-63
2022/09/04 00:45:21;;;;;;;10.02;9.57;;;;;;;13.27;100.00;101369.81;5062100;28;20128;-62
2022/09/04 00:48:36;;;;;;;10.05;9.55;;;;;;;13.21;100.00;101373.16;5050630;28;20032;-62
2022/09/04 00:51:24;;;;;;;10.25;9.75;;;;;;;13.06;100.00;101375.66;5021306;28;20504;-62
2022/09/04 00:54:08;;;;;;;10.20;9.70;;;;;;;13.11;100.00;101375.97;5026494;28;20041;-61
2022/09/04 00:56:36;;;;;;;10.57;10.07;;;;;;;13.15;100.00;101379.16;5062693;28;20075;-63
2022/09/04 00:59:04;;;;;;;10.55;10.05;;;;;;;13.00;100.00;101385.19;5074756;28;20058;-63
2022/09/04 01:01:30;;;;;;;10.40;9.90;;;;;;;13.16;100.00;101388.81;5081874;28;20436;-63
2022/09/04 01:04:08;;;;;;;10.48;9.98;;;;;;;13.39;100.00;101387.09;5088339;28;20095;-64
2022/09/04 01:06:56;;;;;;;10.10;9.60;;;;;;;13.35;100.00;101382.25;5094128;28;20517;-61
2022/09/04 01:09:26;;;;;;;9.90;9.45;;;;;;;13.26;100.00;101376.13;5075234;28;20060;-63
2022/09/04 01:11:57;;;;;;;10.40;9.90;;;;;;;13.18;100.00;101376.13;5056209;28;20017;-62
2022/09/04 01:14:54;;;;;;;10.65;10.15;;;;;;;13.14;100.00;101383.63;5089621;28;20032;-63
2022/09/04 01:17:21;;;;;;;10.80;10.30;;;;;;;13.01;100.00;101378.00;5073546;28;20020;-63
2022/09/04 01:20:31;;;;;;;10.30;9.80;;;;;;;13.10;100.00;101382.31;5077473;28;20059;-63
2022/09/04 01:23:20;;;;;;;9.98;9.50;;;;;;;13.09;100.00;101382.50;5074426;28;20028;-63
2022/09/04 01:25:58;;;;;;;10.70;10.20;;;;;;;13.14;100.00;101380.97;5090638;28;20550;-62
2022/09/04 01:29:00;;;;;;;10.40;9.90;;;;;;;13.10;100.00;101370.84;5084225;28;20033;-63
2022/09/04 01:31:38;;;;;;;10.10;9.60;;;;;;;13.16;100.00;101373.66;5073611;28;20028;-63
2022/09/04 01:34:36;;;;;;;10.55;10.05;;;;;;;13.08;100.00;101373.66;5081266;28;20039;-61
2022/09/04 01:37:14;;;;;;;10.40;9.90;;;;;;;13.16;100.00;101380.81;5071998;28;20429;-63
2022/09/04 01:39:45;;;;;;;10.63;10.13;;;;;;;13.25;100.00;101377.16;5078540;28;20082;-63
2022/09/04 01:42:27;;;;;;;10.75;10.25;;;;;;;13.35;100.00;101390.25;5081855;28;20119;-63
2022/09/04 01:44:52;;;;;;;10.15;9.65;;;;;;;13.22;100.00;101385.47;5089649;28;20128;-63
2022/09/04 01:47:29;;;;;;;10.25;9.75;;;;;;;13.12;100.00;101384.81;5081932;28;20111;-63
2022/09/04 01:50:05;;;;;;;10.48;9.98;;;;;;;13.18;100.00;101390.28;5067784;28;20068;-61
2022/09/04 01:53:00;;;;;;;10.30;9.80;;;;;;;13.23;100.00;101389.81;5071689;28;20020;-63
2022/09/04 01:55:25;;;;;;;;;;;;;;;13.27;100.00;101383.97;5082309;28;20024;-62
2022/09/04 01:58:13;;;;;;;10.10;9.60;;;;;;;13.35;100.00;101390.25;5081674;28;19912;-61
2022/09/04 02:00:59;;;;;;;10.57;10.07;;;;;;;13.28;100.00;101384.78;5076463;28;20372;-62
2022/09/04 02:03:30;;;;;;;10.60;10.10;;;;;;;13.34;100.00;101391.28;5062435;28;20103;-61
2022/09/04 02:06:02;;;;;;;10.35;9.85;;;;;;;13.34;100.00;101389.44;5092636;28;20032;-62
2022/09/04 02:08:27;;;;;;;10.40;9.90;;;;;;;13.39;100.00;101389.75;5088086;28;20028;-61
2022/09/04 02:11:09;;;;;;;10.25;9.75;;;;;;;13.34;100.00;101389.44;5076020;28;20040;-63
2022/09/04 02:13:43;;;;;;;10.10;9.60;;;;;;;13.44;100.00;101387.41;5084162;28;20114;-62
2022/09/04 02:16:35;;;;;;;10.30;9.80;;;;;;;13.23;100.00;101376.50;5092742;28;20059;-63
2022/09/04 02:19:23;;;;;;;10.20;9.70;;;;;;;13.33;100.00;101374.44;5091654;28;20056;-63
2022/09/04 02:22:02;;;;;;;10.63;10.13;;;;;;;13.39;100.00;101373.78;5073554;28;20032;-62
2022/09/04 02:24:55;;;;;;;10.15;9.65;;;;;;;13.18;100.00;101381.47;5085058;28;20032;-62
2022/09/04 02:27:29;;;;;;;10.40;9.90;;;;;;;13.16;100.00;101381.63;5072966;28;20116;-63
2022/09/04 02:29:57;;;;;;;10.18;9.68;;;;;;;13.24;100.00;101375.50;5088187;28;20047;-62
2022/09/04 02:32:53;;;;;;;10.50;10.00;;;;;;;13.18;100.00;101378.81;5085386;28;20020;-63
2022/09/04 02:35:30;;;;;;;10.57;10.07;;;;;;;13.19;100.00;101381.28;5085262;28;20031;-62
2022/09/04 02:37:55;;;;;;;10.73;10.23;;;;;;;13.25;100.00;101377.16;5066422;28;20024;-61
2022/09/04 02:40:57;;;;;;;10.77;10.27;;;;;;;13.39;100.00;101372.94;5077807;28;20024;-63
2022/09/04 02:43:47;;;;;;;10.10;9.60;;;;;;;13.32;100.00;101378.13;5075860;28;20111;-61
2022/09/04 02:46:33;;;;;;;10.10;9.60;;;;;;;13.27;100.00;101383.13;5080848;28;20094;-63
2022/09/04 02:49:17;;;;;;;9.65;9.25;;;;;;;13.26;100.00;101378.81;5071684;28;20044;-62
2022/09/04 02:52:04;;;;;;;10.20;9.70;;;;;;;13.32;100.00;101375.47;5073298;28;20028;-62
2022/09/04 02:54:30;;;;;;;10.63;10.13;;;;;;;13.32;100.00;101377.28;5084178;28;20029;-62
2022/09/04 02:57:28;;;;;;;10.43;9.93;;;;;;;13.22;100.00;101375.66;5090085;28;20054;-62
2022/09/04 03:00:13;;;;;;;10.50;10.00;;;;;;;13.26;100.00;101379.63;5033512;28;20044;-62
2022/09/04 03:03:12;;;;;;;10.40;9.90;;;;;;;13.46;100.00;101371.25;5066364;28;20097;-62
2022/09/04 03:05:49;;;;;;;10.30;9.80;;;;;;;13.34;100.00;101376.09;5091969;28;20039;-62
2022/09/04 03:08:22;;;;;;;10.52;10.02;;;;;;;13.49;100.00;101381.53;5091513;28;20510;-62
2022/09/04 03:11:03;;;;;;;10.32;9.82;;;;;;;13.42;100.00;101383.25;5054315;28;20025;-62
2022/09/04 03:13:40;;;;;;;10.23;9.73;;;;;;;13.43;100.00;101387.56;5050784;28;20036;-62
2022/09/04 03:16:25;;;;;;;10.10;9.60;;;;;;;13.50;100.00;101389.38;5082322;28;20032;-62
2022/09/04 03:19:07;;;;;;;10.38;9.88;;;;;;;13.53;100.00;101386.38;5068234;28;20116;-62
2022/09/04 03:21:44;;;;;;;10.27;9.77;;;;;;;13.54;100.00;101385.38;5084187;28;20069;-62
2022/09/04 03:24:26;;;;;;;10.30;9.80;;;;;;;13.77;100.00;101381.94;5082333;28;20077;-63
2022/09/04 03:26:56;;;;;;;10.23;9.73;;;;;;;13.57;100.00;101384.19;5081898;28;20043;-63
2022/09/04 03:29:40;;;;;;;10.30;9.80;;;;;;;13.66;100.00;101383.16;5071566;28;20028;-63
2022/09/04 03:32:17;;;;;;;10.10;9.60;;;;;;;13.51;100.00;101380.41;5085148;28;20036;-61
2022/09/04 03:34:59;;;;;;;9.85;9.45;;;;;;;13.49;100.00;101381.53;5071033;28;20044;-63
2022/09/04 03:37:58;;;;;;;10.05;9.55;;;;;;;13.66;100.00;101382.31;5087670;28;20023;-61
2022/09/04 03:40:49;;;;;;;10.30;9.80;;;;;;;13.80;100.00;101392.22;5084256;28;20450;-62
2022/09/04 03:43:53;;;;;;;9.65;9.25;;;;;;;14.25;100.00;101396.81;5068137;28;20028;-62
2022/09/04 03:46:56;;;;;;;10.15;9.65;;;;;;;14.45;100.00;101394.47;5075507;28;20082;-62
2022/09/04 03:49:33;;;;;;;9.98;9.52;;;;;;;14.88;100.00;101392.16;5070006;28;20048;-62
2022/09/04 03:52:01;;;;;;;11.07;10.57;;;;;;;15.22;100.00;101393.50;5070938;28;20416;-62
2022/09/04 03:54:49;;;;;;;9.85;9.45;;;;;;;15.04;100.00;101397.31;5071488;28;20463;-62
2022/09/04 03:57:42;;;;;;;10.05;9.55;;;;;;;15.28;100.00;101400.78;5065616;28;20515;-61
2022/09/04 04:00:09;;;;;;;10.55;10.05;;;;;;;14.63;100.00;101408.41;5068352;28;20031;-62
2022/09/04 04:03:01;;;;;;;9.80;9.40;;;;;;;14.91;100.00;101411.34;5088253;28;20020;-62
2022/09/04 04:05:41;;;;;;;10.18;9.68;;;;;;;14.79;100.00;101411.94;5075549;28;20090;-63
2022/09/04 04:08:28;;;;;;;10.18;9.68;;;;;;;14.78;100.00;101412.97;5083538;28;20036;-62
2022/09/04 04:10:55;;;;;;;10.40;9.90;;;;;;;14.87;100.00;101414.53;5075792;28;20100;-62
2022/09/04 04:13:54;;;;;;;10.40;9.90;;;;;;;14.60;100.00;101418.59;5095245;28;20048;-62
2022/09/04 04:16:40;;;;;;;10.32;9.82;;;;;;;14.72;100.00;101422.50;5091276;28;20040;-63
2022/09/04 04:19:14;;;;;;;10.45;9.95;;;;;;;14.88;100.00;101426.88;5079529;28;20024;-63
2022/09/04 04:21:55;;;;;;;;;;;;;;;14.83;100.00;101429.25;5095641;28;20028;-62
2022/09/04 04:24:37;;;;;;;10.30;9.80;;;;;;;14.69;100.00;101430.03;5071313;28;19916;-62
2022/09/04 04:27:24;;;;;;;10.30;9.80;;;;;;;15.06;100.00;101438.09;5080973;28;20036;-61
2022/09/04 04:29:52;;;;;;;10.20;9.70;;;;;;;15.01;100.00;101432.44;5093533;28;20028;-63
2022/09/04 04:32:47;;;;;;;10.15;9.65;;;;;;;15.08;100.00;101441.38;5093290;28;20077;-62
2022/09/04 04:35:47;;;;;;;10.77;10.27;;;;;;;15.25;100.00;101435.88;5032181;28;20464;-61
2022/09/04 04:38:21;;;;;;;10.30;9.80;;;;;;;15.28;100.00;101432.84;5092019;28;20077;-62
2022/09/04 04:41:05;;;;;;;9.70;9.30;;;;;;;15.52;100.00;101429.91;5067473;28;20032;-61
2022/09/04 04:43:55;;;;;;;10.57;10.07;;;;;;;15.88;100.00;101434.50;5072737;28;20115;-62
2022/09/04 04:46:45;;;;;;;10.65;10.15;;;;;;;15.98;100.00;101429.69;5073807;28;20028;-63
2022/09/04 04:49:27;;;;;;;10.43;9.93;;;;;;;15.99;100.00;101437.53;5073139;28;20048;-62
2022/09/04 04:52:15;;;;;;;9.93;9.52;;;;;;;16.03;100.00;101438.00;5054113;28;20090;-64
2022/09/04 04:55:20;;;;;;;9.90;9.50;;;;;;;16.30;100.00;101437.28;5052270;28;20059;-61
2022/09/04 04:58:04;;;;;;;9.83;9.43;;;;;;;15.91;100.00;101442.97;5055438;28;20131;-62
2022/09/04 05:00:40;;;;;;;10.27;9.77;;;;;;;16.28;100.00;101447.31;5048912;28;20426;-61
2022/09/04 05:03:35;;;;;;;10.38;9.88;;;;;;;16.87;100.00;101454.31;5054784;28;20480;-63
2022/09/04 05:06:16;;;;;;;;;;;;;;;22.07;100.00;101445.53;5054410;28;20032;-63
2022/09/04 05:08:48;;;;;;;9.73;9.32;;;;;;;27.80;100.00;101445.22;5053837;28;19917;-61
2022/09/04 05:12:02;;;;;;;10.40;9.90;;;;;;;29.49;89.10;101459.75;5054053;28;20033;-63
2022/09/04 05:14:34;;;;;;;10.10;9.70;;;;;;;28.99;83.58;101459.59;5027760;28;20041;-62
2022/09/04 05:16:59;;;;;;;10.18;9.77;;;;;;;28.37;82.67;101457.94;5053644;28;20560;-62
2022/09/04 05:19:31;;;;;;;10.20;9.80;;;;;;;27.18;91.30;101454.97;5056541;28;20075;-62
2022/09/04 05:22:30;;;;;;;10.63;10.13;;;;;;;30.83;75.83;101464.22;5055068;28;20037;-62
2022/09/04 05:25:16;;;;;;;10.20;9.80;;;;;;;30.53;71.18;101460.59;5043014;28;20472;-62
2022/09/04 05:27:57;;;;;;;10.07;9.68;;;;;;;31.28;66.47;101462.97;5053437;28;20033;-63
2022/09/04 05:30:56;;;;;;;10.63;10.13;;;;;;;30.21;68.67;101464.66;5052655;28;20056;-63
2022/09/04 05:33:47;;;;;;;10.10;9.70;;;;;;;30.87;68.27;101468.03;5053590;28;20040;-62
2022/09/04 05:36:23;;;;;;;10.40;9.90;;;;;;;32.88;55.64;101464.06;5053323;28;20025;-62
2022/09/04 05:39:07;;;;;;;10.65;10.15;;;;;;;31.88;57.17;101457.88;5046831;28;20024;-62
2022/09/04 05:41:54;;;;;;;10.38;9.93;;;;;;;32.73;55.47;101462.34;5056430;28;20488;-61
2022/09/04 05:44:46;;;;;;;10.55;10.05;;;;;;;33.05;52.51;101463.47;5080238;28;20103;-63
2022/09/04 05:47:43;;;;;;;10.48;9.98;;;;;;;33.36;51.25;101472.78;5062848;28;20071;-62
2022/09/04 05:50:24;;;;;;;10.40;9.93;;;;;;;32.63;53.02;101468.84;5052850;28;20033;-62
2022/09/04 05:53:17;;;;;;;10.60;10.10;;;;;;;30.12;62.28;101474.56;5059063;28;20059;-64
2022/09/04 05:55:54;;;;;;;10.05;9.65;;;;;;;31.95;57.26;101482.19;5041394;28;20029;-62
2022/09/04 05:58:32;;;;;;;10.40;9.95;;;;;;;32.22;52.36;101485.09;5056179;28;20043;-62
2022/09/04 06:01:37;;;;;;;10.30;9.90;;;;;;;32.54;50.17;101486.28;5046665;28;20040;-62
2022/09/04 06:04:38;;;;;;;10.15;9.75;;;;;;;33.17;50.50;101485.78;5058604;28;20032;-62
2022/09/04 06:07:13;;;;;;;10.30;9.90;;;;;;;30.52;57.19;101478.13;5024355;28;20048;-63
2022/09/04 06:09:45;;;;;;;9.95;9.55;;;;;;;30.33;60.97;101488.94;5062476;28;20141;-62
2022/09/04 06:12:22;;;;;;;10.57;10.07;;;;;;;31.61;55.47;101494.13;5050491;28;20081;-62
2022/09/04 06:15:09;;;;;;;10.52;10.02;;;;;;;31.11;52.90;101490.78;5051603;28;20029;-62
2022/09/04 06:18:00;;;;;;;10.18;9.77;;;;;;;32.03;52.70;101493.34;5052435;28;20024;-63
2022/09/04 06:20:47;;;;;;;10.68;10.18;;;;;;;31.91;54.77;101492.97;5068758;28;20120;-62
2022/09/04 06:24:00;;;;;;;10.70;10.20;;;;;;;32.90;49.54;101500.28;5048877;28;20035;-63
2022/09/04 06:26:45;;;;;;;10.52;10.02;;;;;;;32.37;51.74;101500.56;5041825;28;20607;-62
2022/09/04 06:29:22;;;;;;;10.90;10.40;;;;;;;33.57;47.95;101500.72;5020005;28;20511;-63
2022/09/04 06:32:25;;;;;;;10.75;10.25;;;;;;;33.09;45.65;101500.25;5029549;28;20072;-63
2022/09/04 06:35:16;;;;;;;10.68;10.18;;;;;;;30.79;52.41;101491.38;5030018;28;20145;-62
2022/09/04 06:37:56;;;;;;;10.80;10.30;;;;;;;31.98;52.80;101492.59;5029887;28;20029;-62
2022/09/04 06:40:30;;;;;;;10.57;10.07;;;;;;;33.47;45.11;101482.47;5017171;28;20102;-62
2022/09/04 06:43:14;;;;;;;10.50;10.00;;;;;;;32.96;43.29;101488.09;5029696;28;20773;-62
2022/09/04 06:45:47;;;;;;;10.20;9.80;;;;;;;29.43;50.95;101495.31;5029893;28;20048;-63
2022/09/04 06:48:28;;;;;;;10.18;9.77;;;;;;;32.19;46.19;101496.69;5038202;28;20052;-62
2022/09/04 06:51:51;;;;;;;10.20;9.80;;;;;;;30.43;44.29;101486.13;5069718;28;20033;-63
2022/09/04 06:54:40;;;;;;;10.05;9.65;;;;;;;27.95;57.61;101485.34;5010912;28;20107;-62
2022/09/04 06:57:21;;;;;;;10.07;9.68;;;;;;;28.05;56.13;101483.47;5069413;28;20117;-62
2022/09/04 06:59:59;;;;;;;10.23;9.82;;;;;;;33.58;41.13;101488.59;5069840;28;20558;-62
2022/09/04 07:02:52;;;;;;;10.30;9.90;;;;;;;32.85;40.23;101492.13;5071316;28;20029;-63
2022/09/04 07:05:34;;;;;;;10.15;9.75;;;;;;;35.33;35.70;101492.44;5061164;28;20507;-62
2022/09/04 07:08:12;;;;;;;10.23;9.82;;;;;;;35.03;35.16;101491.34;5072981;28;20039;-64
2022/09/04 07:10:45;;;;;;;9.85;9.45;;;;;;;29.63;42.13;101490.91;5079871;28;20082;-61
2022/09/04 07:13:22;;;;;;;10.05;9.65;;;;;;;31.22;37.08;101486.06;5070866;28;20024;-64
2022/09/04 07:15:47;;;;;;;9.88;9.48;;;;;;;26.99;45.29;101494.56;5071732;28;20058;-64
2022/09/04 07:18:42;;;;;;;9.80;9.40;;;;;;;26.32;46.51;101484.13;5071855;28;20036;-64
2022/09/04 07:21:40;;;;;;;10.05;9.65;;;;;;;26.03;46.14;101488.97;5078847;28;20055;-63
2022/09/04 07:24:28;;;;;;;10.10;9.70;;;;;;;30.59;39.82;101499.72;5072646;28;20035;-63
2022/09/04 07:26:56;;;;;;;10.50;10.00;;;;;;;27.75;43.93;101506.00;5071090;28;20032;-63
2022/09/04 07:29:38;;;;;;;10.57;10.07;;;;;;;29.66;40.55;101504.00;5071522;28;20120;-61
2022/09/04 07:32:18;;;;;;;10.20;9.80;;;;;;;31.01;36.81;101504.59;5058960;28;20086;-62
2022/09/04 07:34:56;;;;;;;10.23;9.82;;;;;;;32.10;36.31;101503.97;5067800;28;20060;-60
2022/09/04 07:37:40;;;;;;;9.90;9.50;;;;;;;28.05;43.10;101504.47;5058017;28;20044;-61
2022/09/04 07:40:28;;;;;;;9.82;9.43;;;;;;;23.67;62.98;101496.09;5072159;28;20055;-59
2022/09/04 07:43:20;;;;;;;10.10;9.70;;;;;;;22.22;75.48;101494.63;5075152;28;20039;-61
2022/09/04 07:45:53;;;;;;;10.50;10.00;;;;;;;26.84;52.12;101505.34;5075737;28;20376;-61
2022/09/04 07:48:34;;;;;;;11.00;10.50;;;;;;;27.41;49.46;101502.78;5076471;28;20051;-61
2022/09/04 07:51:24;;;;;;;10.43;9.93;;;;;;;26.05;60.10;101501.25;5082153;28;20039;-61
2022/09/04 07:54:05;;;;;;;10.50;10.00;;;;;;;27.23;52.13;101509.47;5093960;28;20066;-62
2022/09/04 07:57:26;;;;;;;10.50;10.00;;;;;;;27.34;49.60;101510.38;5086725;28;20031;-62
2022/09/04 08:00:04;;;;;;;10.13;9.73;;;;;;;26.90;50.58;101515.19;5084315;28;20097;-61
2022/09/04 08:02:44;;;;;;;9.75;9.35;;;;;;;26.94;52.99;101514.41;5090474;28;20074;-61
2022/09/04 08:05:19;;;;;;;9.93;9.52;;;;;;;26.32;52.51;101514.06;5077750;28;20036;-62
2022/09/04 08:07:57;;;;;;;10.18;9.77;;;;;;;27.62;50.69;101511.09;5056784;28;20029;-60
2022/09/04 08:11:11;;;;;;;10.00;9.60;;;;;;;27.29;49.76;101512.25;5080292;28;20015;-60
2022/09/04 08:13:48;;;;;;;10.20;9.80;;;;;;;26.43;49.38;101510.38;4980725;28;20104;-61
2022/09/04 08:16:29;;;;;;;10.18;9.77;;;;;;;25.06;51.42;101517.50;4993645;28;20549;-61
2022/09/04 08:19:00;;;;;;;10.23;9.82;;;;;;;27.12;49.68;101513.22;5049366;28;20036;-61
2022/09/04 08:21:35;;;;;;;10.40;9.90;;;;;;;23.34;70.01;101515.63;5094571;28;20034;-62
2022/09/04 08:24:15;;;;;;;10.38;9.90;;;;;;;26.94;52.08;101510.84;5074505;28;20446;-61
2022/09/04 08:27:08;;;;;;;10.20;9.80;;;;;;;26.60;52.27;101507.59;5074922;28;20063;-61
2022/09/04 08:30:07;;;;;;;10.40;9.90;;;;;;;26.10;46.18;101511.38;5093356;28;20028;-61
2022/09/04 08:32:57;;;;;;;10.60;10.10;;;;;;;26.90;46.76;101510.56;5080074;28;20038;-60
2022/09/04 08:35:44;;;;;;;10.15;9.75;;;;;;;25.83;48.45;101514.00;5068003;28;20082;-61
2022/09/04 08:38:25;;;;;;;10.15;9.75;;;;;;;22.01;61.57;101508.59;5088017;28;20583;-62
2022/09/04 08:41:12;;;;;;;10.60;10.10;;;;;;;23.31;57.34;101518.81;5074020;28;20480;-61
2022/09/04 08:43:56;;;;;;;10.30;9.85;;;;;;;21.52;66.40;101505.00;5080770;28;20548;-60
2022/09/04 08:46:31;;;;;;;10.98;10.48;;;;;;;24.01;53.06;101509.78;5092388;28;20030;-60
2022/09/04 08:49:32;;;;;;;10.77;10.27;;;;;;;21.38;64.56;101506.19;5094243;28;20079;-61
2022/09/04 08:52:51;;;;;;;10.27;9.80;;;;;;;23.67;53.50;101490.69;5049538;28;20483;-61
2022/09/04 08:55:44;;;;;;;10.63;10.13;;;;;;;23.50;52.52;101498.66;5082914;28;20028;-61
2022/09/04 08:58:50;;;;;;;10.05;9.65;;;;;;;23.23;52.10;101498.34;5084183;28;20028;-61
2022/09/04 09:01:33;;;;;;;10.38;9.88;;;;;;;25.60;46.24;101494.13;5090630;28;20048;-61
2022/09/04 09:04:17;;;;;;;10.63;10.13;;;;;;;24.77;46.52;101501.25;5082472;28;20029;-61
2022/09/04 09:07:06;;;;;;;10.43;9.93;;;;;;;23.30;52.85;101493.63;5079991;28;20479;-61
2022/09/04 09:09:46;;;;;;;10.57;10.07;;;;;;;24.85;50.06;101494.59;5062559;28;20519;-61
2022/09/04 09:12:56;;;;;;;10.85;10.35;;;;;;;25.49;44.70;101491.53;5073945;28;20023;-60
2022/09/04 09:16:00;;;;;;;10.32;9.85;;;;;;;26.59;43.61;101487.72;5069645;28;20078;-61
2022/09/04 09:18:37;;;;;;;10.32;9.88;;;;;;;26.96;42.96;101487.75;5093912;28;20019;-60
2022/09/04 09:21:40;;;;;;;10.20;9.80;;;;;;;25.88;43.18;101481.47;5094132;28;20394;-61
2022/09/04 09:24:05;;;;;;;10.30;9.85;;;;;;;23.21;43.56;101486.06;5080013;28;20430;-60
2022/09/04 09:27:10;;;;;;;10.38;9.90;;;;;;;25.23;46.04;101476.75;5093851;28;20103;-61
2022/09/04 09:29:35;;;;;;;9.98;9.57;;;;;;;26.30;42.35;101475.41;5043402;28;20052;-61
2022/09/04 09:32:27;;;;;;;10.00;9.60;;;;;;;25.89;40.81;101477.66;5081980;28;20036;-60
2022/09/04 09:35:21;;;;;;;9.80;9.40;;;;;;;22.15;44.76;101480.38;5069379;28;20052;-60
2022/09/04 09:38:07;;;;;;;10.48;9.98;;;;;;;22.16;45.70;101484.72;5073905;28;20082;-61
2022/09/04 09:41:04;;;;;;;10.48;9.98;;;;;;;20.95;51.83;101477.25;5073638;28;20048;-60
2022/09/04 09:44:00;;;;;;;10.25;9.75;;;;;;;20.39;62.84;101484.22;5073387;28;20050;-61
2022/09/04 09:46:47;;;;;;;10.95;10.45;;;;;;;22.79;59.27;101473.44;5073488;28;20043;-60
2022/09/04 09:49:37;;;;;;;11.00;10.50;;;;;;;22.24;54.36;101479.00;5072963;28;20532;-60
2022/09/04 09:52:39;;;;;;;10.35;9.85;;;;;;;24.29;47.93;101471.84;5083379;28;20058;-62
2022/09/04 09:55:23;;;;;;;10.60;10.10;;;;;;;24.60;46.80;101467.84;5089172;28;20028;-61
2022/09/04 09:58:14;;;;;;;10.55;10.05;;;;;;;24.13;44.76;101467.22;5067618;28;20032;-60
2022/09/04 10:01:08;;;;;;;10.27;9.82;;;;;;;20.67;58.69;101473.09;5078435;28;20035;-60
2022/09/04 10:03:52;;;;;;;10.57;10.07;;;;;;;20.81;61.00;101473.00;5072295;28;20027;-61
2022/09/04 10:06:48;;;;;;;10.63;10.13;;;;;;;20.97;62.42;101472.47;5072072;28;20033;-61
2022/09/04 10:09:33;;;;;;;10.68;10.18;;;;;;;22.24;56.63;101478.19;5068285;28;20389;-60
2022/09/04 10:12:29;;;;;;;10.40;9.90;;;;;;;22.59;55.45;101471.03;5067592;28;20028;-60
2022/09/04 10:15:32;;;;;;;10.18;9.77;;;;;;;23.23;50.69;101465.84;5090657;28;20700;-61
2022/09/04 10:18:16;;;;;;;9.95;9.55;;;;;;;22.69;49.89;101465.03;5093281;28;20024;-62
2022/09/04 10:21:09;;;;;;;10.10;9.70;;;;;;;24.28;51.50;101456.66;5065601;28;20028;-61
2022/09/04 10:23:40;;;;;;;9.93;9.52;;;;;;;23.79;51.13;101464.38;5078649;28;20121;-60
2022/09/04 10:26:23;;;;;;;10.70;10.20;;;;;;;24.02;53.47;101463.50;5092799;28;20077;-61
2022/09/04 10:29:35;;;;;;;10.60;10.10;;;;;;;24.31;49.51;101467.03;5075654;28;20164;-61
2022/09/04 10:32:03;;;;;;;9.93;9.52;;;;;;;23.71;47.99;101462.03;5074031;28;20434;-61
2022/09/04 10:34:58;;;;;;;10.60;10.10;;;;;;;23.32;48.05;101477.13;5071896;28;20060;-61
2022/09/04 10:37:35;;;;;;;10.57;10.07;;;;;;;22.42;55.11;101469.22;5071976;28;20055;-61
2022/09/04 10:40:34;;;;;;;10.90;10.40;;;;;;;23.30;51.55;101466.56;5071907;28;20123;-61
2022/09/04 10:43:17;;;;;;;11.32;10.82;;;;;;;23.19;47.69;101461.94;5079059;28;20073;-61
2022/09/04 10:45:46;;;;;;;10.57;10.07;;;;;;;24.58;44.79;101453.69;5082579;28;20438;-61
2022/09/04 10:48:27;;;;;;;10.15;9.75;;;;;;;24.90;43.00;101450.41;5091933;28;20075;-60
2022/09/04 10:51:08;;;;;;;10.50;10.00;;;;;;;25.30;43.99;101461.09;5085161;28;20085;-60
2022/09/04 10:54:05;;;;;;;10.82;10.32;;;;;;;25.49;44.04;101457.03;5070936;28;20035;-61
2022/09/04 10:56:42;;;;;;;10.32;9.82;;;;;;;22.33;53.87;101444.41;5083137;28;20048;-60
2022/09/04 10:59:26;;;;;;;10.38;9.88;;;;;;;23.66;49.66;101446.50;5075339;28;20448;-61
2022/09/04 11:01:58;;;;;;;10.45;9.95;;;;;;;23.33;49.92;101462.53;5076939;28;20028;-61
2022/09/04 11:04:48;;;;;;;10.43;9.93;;;;;;;22.32;52.65;101454.34;5076743;28;20028;-60
2022/09/04 11:07:39;;;;;;;10.43;9.93;;;;;;;21.45;55.63;101450.25;5078026;28;20028;-62
2022/09/04 11:10:20;;;;;;;10.32;9.85;;;;;;;21.12;54.43;101443.25;5088825;28;20578;-61
2022/09/04 11:13:04;;;;;;;10.30;9.80;;;;;;;20.97;56.45;101450.88;5088272;28;20111;-60
2022/09/04 11:16:11;;;;;;;10.40;9.90;;;;;;;21.94;55.55;101432.19;5074694;28;20029;-61
2022/09/04 11:19:09;;;;;;;10.73;10.23;;;;;;;23.87;49.43;101428.78;5051274;28;20057;-60
2022/09/04 11:21:43;;;;;;;10.48;9.98;;;;;;;23.93;49.66;101432.41;5092147;28;20036;-62
2022/09/04 11:24:36;;;;;;;10.57;10.07;;;;;;;23.82;49.76;101428.69;5075804;28;20502;-61
2022/09/04 11:27:20;;;;;;;10.27;9.77;;;;;;;22.10;60.61;101434.28;5071558;28;20046;-62
2022/09/04 11:30:03;;;;;;;10.60;10.10;;;;;;;21.50;59.24;101439.59;5087338;28;20107;-60
2022/09/04 11:33:04;;;;;;;10.52;10.02;;;;;;;21.10;63.98;101433.75;5071423;28;20039;-60
2022/09/04 11:35:51;;;;;;;10.93;10.43;;;;;;;23.04;54.82;101434.53;5039695;28;20563;-63
2022/09/04 11:38:42;;;;;;;10.80;10.30;;;;;;;23.29;54.88;101426.19;5071720;28;20024;-61
2022/09/04 11:41:46;;;;;;;10.15;9.73;;;;;;;23.47;50.44;101428.72;5071757;28;20009;-61
2022/09/04 11:44:45;;;;;;;10.40;9.90;;;;;;;21.90;48.71;101428.31;5082390;28;20036;-63
2022/09/04 11:47:11;;;;;;;10.00;9.60;;;;;;;21.50;51.32;101423.38;5068551;28;20035;-62
2022/09/04 11:50:10;;;;;;;10.70;10.20;;;;;;;22.44;49.39;101429.25;5075349;28;20052;-63
2022/09/04 11:53:10;;;;;;;10.55;10.05;;;;;;;22.70;50.52;101426.13;5058484;28;20500;-61
2022/09/04 11:56:13;;;;;;;10.02;9.63;;;;;;;22.83;52.13;101417.78;5069303;28;20032;-61
2022/09/04 11:58:57;;;;;;;10.35;9.85;;;;;;;23.39;50.38;101416.38;5082795;28;20023;-62
2022/09/04 12:01:41;;;;;;;10.75;10.25;;;;;;;22.47;49.88;101423.38;5070273;28;20024;-62
2022/09/04 12:04:33;;;;;;;11.00;10.50;;;;;;;21.11;56.18;101422.72;5068617;28;20498;-62
2022/09/04 12:07:15;;;;;;;10.60;10.10;;;;;;;22.76;53.63;101418.94;5071711;28;20250;-62
2022/09/04 12:09:50;;;;;;;10.20;9.70;;;;;;;23.71;49.32;101424.94;5069598;28;20032;-62
2022/09/04 12:13:00;;;;;;;10.10;9.70;;;;;;;23.84;47.93;101421.13;5066881;28;20495;-61
2022/09/04 12:15:39;;;;;;;10.40;9.90;;;;;;;23.64;47.53;101429.66;5074758;28;20036;-63
2022/09/04 12:18:33;;;;;;;10.40;9.90;;;;;;;23.64;46.94;101432.38;5069803;28;20487;-62
2022/09/04 12:21:14;;;;;;;10.25;9.80;;;;;;;22.20;49.16;101425.66;5069982;28;20032;-63
2022/09/04 12:24:13;;;;;;;10.40;9.90;;;;;;;23.14;48.21;101427.50;5070080;28;20501;-63
2022/09/04 12:26:51;;;;;;;10.57;10.07;;;;;;;23.36;47.48;101424.19;5066383;28;20150;-62
2022/09/04 12:29:28;;;;;;;10.50;10.00;;;;;;;23.61;48.07;101423.91;5072451;28;20069;-62
2022/09/04 12:32:06;;;;;;;11.18;10.68;;;;;;;21.86;50.40;101422.53;5075417;28;20074;-63